createdAt,value
2022-08-04T00:01:33.276Z,23.58
2022-08-04T00:04:09.166Z,23.54
2022-08-04T00:06:57.460Z,23.57
2022-08-04T00:09:40.051Z,23.52
2022-08-04T00:12:12.690Z,23.44
2022-08-04T00:14:51.885Z,23.41
2022-08-04T00:17:27.008Z,23.31
2022-08-04T00:20:02.263Z,23.32
2022-08-04T00:22:32.929Z,23.29
2022-08-04T00:25:05.185Z,23.30
2022-08-04T00:27:36.295Z,23.28
2022-08-04T00:30:09.318Z,23.24
2022-08-04T00:32:41.560Z,23.21
2022-08-04T00:35:14.361Z,23.11
2022-08-04T00:37:46.939Z,23.04
2022-08-04T00:40:51.790Z,22.92
2022-08-04T00:43:33.408Z,22.90
2022-08-04T00:46:40.902Z,22.93
2022-08-04T00:50:02.220Z,22.92
2022-08-04T00:52:52.030Z,22.88
2022-08-04T00:56:12.848Z,22.84
2022-08-04T00:59:00.221Z,22.84
2022-08-04T01:02:00.188Z,22.71
2022-08-04T01:04:47.159Z,22.62
2022-08-04T01:07:38.707Z,22.56
2022-08-04T01:10:20.623Z,22.53
2022-08-04T01:13:17.921Z,22.50
2022-08-04T01:16:00.781Z,22.45
2022-08-04T01:18:44.468Z,22.44
2022-08-04T01:21:59.786Z,22.48
2022-08-04T01:24:59.667Z,22.45
2022-08-04T01:27:55.915Z,22.38
2022-08-04T01:30:30.038Z,22.33
2022-08-04T01:33:05.999Z,22.26
2022-08-04T01:35:47.868Z,22.22
2022-08-04T01:38:24.089Z,22.28
2022-08-04T01:40:56.569Z,22.25
2022-08-04T01:43:28.699Z,22.23
2022-08-04T01:46:01.957Z,22.23
2022-08-04T01:48:32.312Z,22.16
2022-08-04T01:51:09.614Z,22.11
2022-08-04T01:53:41.272Z,22.02
2022-08-04T01:56:13.136Z,21.94
2022-08-04T01:58:42.811Z,21.91
2022-08-04T02:01:14.853Z,21.89
2022-08-04T02:04:19.870Z,21.83
2022-08-04T02:06:51.050Z,21.85
2022-08-04T02:09:29.464Z,21.87
2022-08-04T02:12:16.276Z,21.89
2022-08-04T02:14:54.731Z,21.91
2022-08-04T02:17:32.817Z,21.89
2022-08-04T02:20:13.516Z,21.84
2022-08-04T02:22:54.812Z,21.79
2022-08-04T02:25:28.411Z,21.74
2022-08-04T02:28:13.859Z,21.71
2022-08-04T02:30:57.847Z,21.62
2022-08-04T02:33:38.504Z,21.59
2022-08-04T02:36:11.777Z,21.57
2022-08-04T02:38:58.016Z,21.50
2022-08-04T02:41:29.458Z,21.43
2022-08-04T02:44:02.308Z,21.45
2022-08-04T02:46:32.755Z,21.50
2022-08-04T02:49:05.704Z,21.48
2022-08-04T02:51:38.650Z,21.42
2022-08-04T02:54:08.461Z,21.41
2022-08-04T02:56:39.499Z,21.34
2022-08-04T02:59:10.928Z,21.37
2022-08-04T03:01:56.747Z,21.36
2022-08-04T03:04:50.855Z,21.31
2022-08-04T03:08:09.607Z,21.28
2022-08-04T03:11:38.719Z,21.24
2022-08-04T03:14:53.996Z,21.24
2022-08-04T03:18:10.620Z,21.21
2022-08-04T03:21:24.277Z,21.20
2022-08-04T03:24:45.629Z,21.18
2022-08-04T03:27:53.407Z,21.20
2022-08-04T03:30:30.895Z,21.17
2022-08-04T03:33:45.465Z,21.17
2022-08-04T03:37:05.364Z,21.15
2022-08-04T03:40:30.985Z,21.13
2022-08-04T03:44:00.090Z,21.07
2022-08-04T03:47:31.164Z,21.07
2022-08-04T03:51:08.940Z,21.04
2022-08-04T03:53:55.972Z,21.04
2022-08-04T03:57:02.785Z,20.99
2022-08-04T04:00:10.258Z,20.97
2022-08-04T04:03:41.285Z,20.95
2022-08-04T04:07:22.538Z,20.95
2022-08-04T04:10:19.093Z,20.91
2022-08-04T04:13:40.467Z,20.87
2022-08-04T04:16:39.620Z,20.86
2022-08-04T04:19:49.013Z,20.80
2022-08-04T04:23:01.636Z,20.69
2022-08-04T04:25:42.441Z,20.61
2022-08-04T04:29:01.559Z,20.51
2022-08-04T04:32:06.953Z,20.44
2022-08-04T04:34:54.454Z,20.37
2022-08-04T04:37:49.094Z,20.35
2022-08-04T04:40:42.445Z,20.31
2022-08-04T04:44:19.927Z,20.37
2022-08-04T04:47:05.722Z,20.43
2022-08-04T04:49:50.799Z,20.41
2022-08-04T04:52:32.279Z,20.41
2022-08-04T04:55:17.282Z,20.40
2022-08-04T04:57:53.447Z,20.42
2022-08-04T05:00:27.569Z,20.43
2022-08-04T05:03:39.047Z,20.44
2022-08-04T05:06:37.339Z,20.46
2022-08-04T05:09:27.723Z,20.46
2022-08-04T05:14:31.988Z,20.45
2022-08-04T05:15:37.501Z,20.52
2022-08-04T05:18:12.786Z,20.58
2022-08-04T05:20:49.081Z,20.62
2022-08-04T05:23:24.781Z,20.65
2022-08-04T05:25:59.958Z,20.67
2022-08-04T05:28:40.303Z,20.67
2022-08-04T05:31:17.890Z,20.68
2022-08-04T05:33:55.134Z,20.74
2022-08-04T05:36:41.100Z,20.79
2022-08-04T05:39:17.913Z,20.84
2022-08-04T05:41:55.754Z,20.91
2022-08-04T05:44:29.424Z,20.93
2022-08-04T05:47:01.905Z,20.98
2022-08-04T05:49:31.272Z,21.02
2022-08-04T05:52:04.499Z,21.03
2022-08-04T05:54:36.874Z,21.07
2022-08-04T05:57:09.207Z,21.12
2022-08-04T05:59:46.605Z,21.16
2022-08-04T06:02:19.594Z,21.21
2022-08-04T06:04:52.389Z,21.28
2022-08-04T06:07:22.865Z,21.33
2022-08-04T06:09:52.088Z,21.38
2022-08-04T06:12:26.986Z,21.42
2022-08-04T06:14:59.917Z,21.49
2022-08-04T06:19:56.217Z,21.55
2022-08-04T06:20:34.525Z,21.63
2022-08-04T06:23:09.893Z,21.69
2022-08-04T06:25:45.811Z,21.75
2022-08-04T06:28:16.745Z,21.80
2022-08-04T06:30:48.524Z,21.83
2022-08-04T06:33:27.597Z,21.86
2022-08-04T06:35:59.528Z,21.90
2022-08-04T06:38:30.923Z,21.95
2022-08-04T06:41:03.655Z,21.98
2022-08-04T06:43:42.857Z,22.01
2022-08-04T06:46:13.230Z,22.08
2022-08-04T06:48:47.527Z,22.13
2022-08-04T06:51:26.759Z,22.20
2022-08-04T06:54:02.647Z,22.26
2022-08-04T06:56:33.799Z,22.32
2022-08-04T06:59:03.871Z,22.38
2022-08-04T07:01:36.953Z,22.45
2022-08-04T07:04:08.319Z,22.54
2022-08-04T07:06:38.292Z,22.61
2022-08-04T07:09:08.860Z,22.69
2022-08-04T07:11:39.242Z,22.76
2022-08-04T07:14:15.373Z,22.84
2022-08-04T07:16:45.406Z,22.92
2022-08-04T07:19:18.867Z,22.99
2022-08-04T07:22:18.109Z,23.07
2022-08-04T07:24:40.986Z,23.16
2022-08-04T07:27:10.341Z,23.23
2022-08-04T07:29:40.576Z,23.29
2022-08-04T07:32:11.144Z,23.34
2022-08-04T07:34:43.654Z,23.42
2022-08-04T07:37:18.847Z,23.49
2022-08-04T07:39:48.775Z,23.55
2022-08-04T07:42:21.417Z,23.61
2022-08-04T07:44:50.340Z,23.66
2022-08-04T07:47:25.126Z,23.72
2022-08-04T07:49:58.096Z,23.79
2022-08-04T07:52:28.564Z,23.83
2022-08-04T07:54:58.507Z,23.90
2022-08-04T07:57:40.235Z,23.98
2022-08-04T08:00:14.665Z,24.05
2022-08-04T08:02:44.318Z,24.13
2022-08-04T08:05:18.337Z,24.19
2022-08-04T08:07:50.675Z,24.27
2022-08-04T08:10:23.356Z,24.36
2022-08-04T08:12:53.808Z,24.45
2022-08-04T08:15:23.423Z,24.53
2022-08-04T08:17:58.624Z,24.63
2022-08-04T08:20:32.122Z,24.73
2022-08-04T08:23:05.463Z,24.83
2022-08-04T08:25:34.759Z,24.93
2022-08-04T08:28:06.317Z,25.04
2022-08-04T08:30:36.020Z,25.19
2022-08-04T08:33:09.026Z,25.28
2022-08-04T08:35:54.850Z,25.37
2022-08-04T08:38:44.634Z,25.51
2022-08-04T08:42:10.596Z,25.64
2022-08-04T08:45:29.938Z,25.73
2022-08-04T08:48:22.815Z,25.83
2022-08-04T08:51:38.141Z,25.91
2022-08-04T08:54:51.586Z,25.98
2022-08-04T08:57:59.933Z,26.05
2022-08-04T09:00:47.245Z,26.12
2022-08-04T09:04:28.859Z,26.19
2022-08-04T09:07:39.043Z,26.25
2022-08-04T09:10:18.768Z,26.30
2022-08-04T09:12:56.455Z,26.34
2022-08-04T09:15:35.611Z,26.40
2022-08-04T09:18:14.768Z,26.46
2022-08-04T09:20:52.123Z,26.50
2022-08-04T09:23:33.308Z,26.57
2022-08-04T09:26:11.012Z,26.69
2022-08-04T09:28:54.496Z,26.75
2022-08-04T09:31:51.607Z,26.84
2022-08-04T09:34:39.000Z,27.02
2022-08-04T09:37:24.937Z,27.15
2022-08-04T09:40:31.614Z,27.32
2022-08-04T09:43:28.067Z,27.73
2022-08-04T09:46:23.926Z,27.85
2022-08-04T09:49:00.871Z,27.96
2022-08-04T09:51:58.207Z,28.08
2022-08-04T09:54:45.185Z,28.21
2022-08-04T09:57:37.860Z,28.46
2022-08-04T10:00:13.655Z,28.70
2022-08-04T10:02:48.334Z,29.05
2022-08-04T10:05:24.340Z,29.33
2022-08-04T10:08:24.234Z,29.36
2022-08-04T10:11:08.138Z,29.38
2022-08-04T10:13:58.144Z,29.50
2022-08-04T10:16:44.006Z,29.61
2022-08-04T10:19:27.711Z,29.81
2022-08-04T10:22:30.602Z,29.94
2022-08-04T10:26:03.583Z,30.01
2022-08-04T10:28:13.228Z,30.06
2022-08-04T10:30:53.328Z,30.11
2022-08-04T10:33:30.492Z,30.20
2022-08-04T10:36:07.941Z,30.27
2022-08-04T10:38:47.019Z,30.29
2022-08-04T10:41:30.098Z,30.45
2022-08-04T10:44:16.079Z,30.64
2022-08-04T10:46:55.119Z,30.73
2022-08-04T10:49:35.002Z,30.77
2022-08-04T10:52:12.405Z,30.84
2022-08-04T10:54:53.386Z,31.04
2022-08-04T10:57:31.224Z,31.12
2022-08-04T11:00:04.735Z,31.13
2022-08-04T11:02:44.672Z,31.21
2022-08-04T11:05:26.482Z,31.27
2022-08-04T11:08:06.638Z,31.39
2022-08-04T11:10:47.850Z,31.50
2022-08-04T11:13:22.102Z,31.58
2022-08-04T11:16:05.289Z,31.63
2022-08-04T11:18:47.651Z,31.73
2022-08-04T11:21:22.966Z,31.84
2022-08-04T11:24:05.023Z,31.80
2022-08-04T11:26:49.524Z,31.89
2022-08-04T11:29:30.554Z,31.97
2022-08-04T11:32:04.895Z,31.96
2022-08-04T11:34:37.529Z,31.99
2022-08-04T11:37:18.624Z,32.06
2022-08-04T11:39:54.447Z,32.13
2022-08-04T11:42:28.142Z,32.17
2022-08-04T11:45:04.537Z,32.20
2022-08-04T11:47:45.711Z,32.27
2022-08-04T11:50:24.301Z,32.31
2022-08-04T11:52:56.324Z,32.31
2022-08-04T11:55:29.558Z,32.39
2022-08-04T11:57:58.546Z,32.38
2022-08-04T12:00:32.420Z,32.42
2022-08-04T12:03:16.897Z,32.48
2022-08-04T12:06:11.694Z,32.60
2022-08-04T12:09:05.220Z,32.65
2022-08-04T12:12:02.791Z,32.77
2022-08-04T12:14:48.737Z,32.83
2022-08-04T12:17:26.872Z,32.94
2022-08-04T12:20:31.765Z,32.95
2022-08-04T12:23:02.045Z,33.00
2022-08-04T12:25:45.258Z,33.06
2022-08-04T12:28:21.897Z,33.16
2022-08-04T12:31:04.269Z,33.19
2022-08-04T12:34:05.415Z,33.26
2022-08-04T12:36:45.055Z,33.27
2022-08-04T12:39:21.102Z,33.29
2022-08-04T12:42:02.879Z,33.42
2022-08-04T12:44:39.014Z,33.48
2022-08-04T12:47:36.139Z,33.54
2022-08-04T12:50:05.803Z,33.60
2022-08-04T12:53:01.474Z,33.65
2022-08-04T12:55:37.395Z,33.63
2022-08-04T12:58:42.102Z,33.71
2022-08-04T13:02:09.880Z,33.78
2022-08-04T13:04:05.550Z,33.84
2022-08-04T13:06:37.981Z,33.86
2022-08-04T13:09:18.519Z,33.91
2022-08-04T13:11:57.978Z,33.97
2022-08-04T13:14:37.692Z,34.01
2022-08-04T13:17:06.939Z,34.05
2022-08-04T13:19:41.338Z,34.09
2022-08-04T13:22:12.115Z,34.13
2022-08-04T13:25:18.238Z,34.18
2022-08-04T13:27:43.136Z,34.20
2022-08-04T13:30:22.563Z,34.22
2022-08-04T13:32:59.895Z,34.21
2022-08-04T13:35:55.765Z,34.20
2022-08-04T13:38:21.797Z,34.17
2022-08-04T13:40:51.826Z,34.15
2022-08-04T13:44:16.216Z,34.12
2022-08-04T13:46:27.034Z,34.12
2022-08-04T13:49:25.996Z,34.10
2022-08-04T13:51:57.749Z,34.11
2022-08-04T13:54:42.874Z,34.08
2022-08-04T13:57:19.170Z,34.08
2022-08-04T13:59:54.511Z,34.07
2022-08-04T14:02:39.017Z,34.06
2022-08-04T14:05:18.403Z,34.09
2022-08-04T14:07:51.955Z,34.07
2022-08-04T14:10:20.998Z,34.13
2022-08-04T14:12:52.543Z,34.20
2022-08-04T14:16:03.093Z,34.26
2022-08-04T14:18:33.469Z,34.28
2022-08-04T14:21:09.614Z,34.32
2022-08-04T14:23:52.349Z,34.36
2022-08-04T14:26:32.728Z,34.43
2022-08-04T14:29:28.473Z,34.48
2022-08-04T14:32:10.543Z,34.59
2022-08-04T14:34:51.832Z,34.71
2022-08-04T14:37:22.668Z,34.73
2022-08-04T14:40:08.217Z,34.84
2022-08-04T14:42:55.504Z,34.97
2022-08-04T14:45:34.281Z,35.16
2022-08-04T14:48:09.283Z,35.28
2022-08-04T14:50:42.992Z,35.43
2022-08-04T14:53:14.980Z,35.56
2022-08-04T14:55:48.616Z,35.64
2022-08-04T14:58:34.497Z,35.76
2022-08-04T15:01:10.449Z,35.90
2022-08-04T15:03:50.486Z,35.86
2022-08-04T15:06:24.163Z,35.92
2022-08-04T15:08:55.464Z,36.04
2022-08-04T15:11:25.484Z,36.15
2022-08-04T15:13:55.237Z,36.20
2022-08-04T15:16:26.949Z,36.26
2022-08-04T15:19:00.079Z,36.26
2022-08-04T15:21:31.743Z,36.29
2022-08-04T15:24:00.976Z,36.27
2022-08-04T15:26:38.067Z,36.32
2022-08-04T15:29:16.901Z,36.38
2022-08-04T15:32:05.919Z,36.38
2022-08-04T15:34:53.029Z,36.43
2022-08-04T15:37:29.997Z,36.48
2022-08-04T15:40:11.011Z,36.55
2022-08-04T15:43:03.116Z,36.54
2022-08-04T15:46:33.143Z,36.44
2022-08-04T15:48:41.092Z,36.46
2022-08-04T15:51:28.370Z,36.51
2022-08-04T15:54:28.062Z,36.42
2022-08-04T15:57:03.568Z,36.46
2022-08-04T16:00:02.937Z,36.29
2022-08-04T16:02:44.135Z,36.24
2022-08-04T16:05:37.089Z,36.26
2022-08-04T16:08:18.743Z,36.21
2022-08-04T16:10:51.778Z,36.17
2022-08-04T16:13:23.851Z,36.15
2022-08-04T16:15:55.446Z,36.17
2022-08-04T16:18:41.417Z,36.11
2022-08-04T16:21:22.041Z,36.04
2022-08-04T16:24:23.829Z,35.94
2022-08-04T16:26:57.230Z,35.82
2022-08-04T16:29:41.442Z,35.78
2022-08-04T16:32:22.855Z,35.66
2022-08-04T16:34:59.948Z,35.58
2022-08-04T16:37:37.824Z,35.57
2022-08-04T16:40:39.344Z,35.52
2022-08-04T16:43:13.683Z,35.40
2022-08-04T16:45:55.283Z,35.36
2022-08-04T16:48:27.706Z,35.33
2022-08-04T16:51:07.129Z,35.24
2022-08-04T16:54:02.715Z,35.18
2022-08-04T16:56:35.618Z,35.16
2022-08-04T16:59:10.104Z,35.14
2022-08-04T17:01:45.816Z,35.11
2022-08-04T17:04:14.950Z,35.06
2022-08-04T17:06:46.417Z,35.02
2022-08-04T17:09:17.954Z,34.96
2022-08-04T17:11:49.466Z,34.86
2022-08-04T17:14:24.634Z,34.85
2022-08-04T17:16:55.880Z,34.81
2022-08-04T17:19:26.311Z,34.74
2022-08-04T17:22:05.505Z,34.69
2022-08-04T17:24:38.383Z,34.60
2022-08-04T17:28:10.963Z,34.54
2022-08-04T17:30:02.189Z,34.51
2022-08-04T17:32:32.176Z,34.39
2022-08-04T17:35:03.565Z,34.32
2022-08-04T17:37:33.120Z,34.29
2022-08-04T17:40:14.477Z,34.24
2022-08-04T17:44:04.811Z,34.20
2022-08-04T17:46:28.752Z,34.10
2022-08-04T17:49:09.102Z,34.06
2022-08-04T17:52:07.001Z,34.05
2022-08-04T17:54:40.159Z,33.99
2022-08-04T17:57:22.299Z,33.96
2022-08-04T18:00:00.318Z,33.93
2022-08-04T18:02:35.045Z,33.81
2022-08-04T18:05:11.376Z,33.81
2022-08-04T18:08:41.501Z,33.68
2022-08-04T18:10:55.737Z,33.63
2022-08-04T18:13:26.766Z,33.54
2022-08-04T18:16:14.533Z,33.51
2022-08-04T18:19:09.338Z,33.39
2022-08-04T18:21:45.802Z,33.31
2022-08-04T18:24:34.362Z,33.24
2022-08-04T18:27:17.306Z,33.18
2022-08-04T18:29:56.484Z,33.05
2022-08-04T18:33:24.245Z,32.99
2022-08-04T18:36:35.282Z,32.86
2022-08-04T18:38:22.414Z,32.79
2022-08-04T18:40:54.483Z,32.74
2022-08-04T18:43:28.340Z,32.64
2022-08-04T18:45:59.873Z,32.59
2022-08-04T18:48:36.801Z,32.46
2022-08-04T18:51:10.771Z,32.39
2022-08-04T18:53:55.165Z,32.32
2022-08-04T18:56:32.549Z,32.21
2022-08-04T19:02:12.512Z,32.03
2022-08-04T19:04:41.911Z,31.96
2022-08-04T19:07:29.740Z,31.85
2022-08-04T19:09:59.786Z,31.69
2022-08-04T19:12:29.378Z,31.73
2022-08-04T19:15:10.577Z,31.65
2022-08-04T19:17:53.265Z,31.62
2022-08-04T19:20:29.616Z,31.60
2022-08-04T19:24:30.000Z,31.55
2022-08-04T19:26:01.613Z,31.48
2022-08-04T19:28:36.878Z,31.39
2022-08-04T19:31:09.511Z,31.36
2022-08-04T19:33:58.776Z,31.30
2022-08-04T19:36:32.568Z,31.26
2022-08-04T19:39:12.829Z,31.17
2022-08-04T19:42:05.597Z,31.13
2022-08-04T19:44:30.563Z,31.01
2022-08-04T19:47:00.557Z,30.95
2022-08-04T19:50:04.175Z,30.80
2022-08-04T19:52:33.429Z,30.71
2022-08-04T19:55:10.388Z,30.69
2022-08-04T19:57:44.175Z,30.67
2022-08-04T20:00:26.141Z,30.64
2022-08-04T20:03:03.335Z,30.58
2022-08-04T20:05:52.474Z,30.50
2022-08-04T20:08:24.333Z,30.46
2022-08-04T20:10:54.588Z,30.41
2022-08-04T20:13:30.515Z,30.37
2022-08-04T20:16:28.897Z,30.29
2022-08-04T20:19:00.850Z,30.21
2022-08-04T20:21:36.474Z,30.18
2022-08-04T20:24:38.613Z,30.14
2022-08-04T20:26:56.273Z,30.10
2022-08-04T20:29:40.374Z,30.08
2022-08-04T20:32:11.017Z,30.02
2022-08-04T20:34:40.183Z,29.93
2022-08-04T20:37:10.726Z,29.89
2022-08-04T20:39:41.914Z,29.83
2022-08-04T20:42:12.709Z,29.78
2022-08-04T20:44:46.961Z,29.74
2022-08-04T20:47:15.856Z,29.64
2022-08-04T20:49:44.331Z,29.56
2022-08-04T20:52:20.331Z,29.49
2022-08-04T20:54:56.253Z,29.43
2022-08-04T20:57:48.411Z,29.40
2022-08-04T21:00:15.342Z,29.30
2022-08-04T21:02:44.436Z,29.23
2022-08-04T21:05:13.112Z,29.19
2022-08-04T21:07:44.024Z,29.20
2022-08-04T21:10:21.981Z,29.17
2022-08-04T21:12:50.648Z,29.10
2022-08-04T21:15:25.043Z,28.99
2022-08-04T21:17:58.990Z,28.94
2022-08-04T21:20:33.624Z,28.91
2022-08-04T21:23:04.989Z,28.88
2022-08-04T21:25:42.503Z,28.81
2022-08-04T21:28:20.462Z,28.74
2022-08-04T21:30:52.870Z,28.73
2022-08-04T21:33:28.143Z,28.62
2022-08-04T21:36:14.441Z,28.58
2022-08-04T21:38:51.802Z,28.55
2022-08-04T21:41:24.869Z,28.56
2022-08-04T21:43:58.863Z,28.54
2022-08-04T21:46:29.940Z,28.45
2022-08-04T21:48:59.639Z,28.42
2022-08-04T21:51:59.150Z,28.39
2022-08-04T21:54:21.933Z,28.30
2022-08-04T21:56:54.358Z,28.20
2022-08-04T21:59:30.782Z,28.13
2022-08-04T22:02:01.905Z,28.13
2022-08-04T22:04:32.085Z,28.09
2022-08-04T22:07:02.623Z,28.08
2022-08-04T22:09:38.728Z,28.03
2022-08-04T22:12:12.425Z,28.00
2022-08-04T22:14:42.168Z,27.99
2022-08-04T22:17:18.860Z,27.89
2022-08-04T22:19:55.734Z,27.85
2022-08-04T22:22:29.021Z,27.84
2022-08-04T22:25:12.448Z,27.81
2022-08-04T22:28:03.621Z,27.80
2022-08-04T22:30:37.480Z,27.82
2022-08-04T22:33:09.769Z,27.74
2022-08-04T22:35:48.752Z,27.72
2022-08-04T22:38:24.478Z,27.70
2022-08-04T22:41:00.448Z,27.69
2022-08-04T22:43:34.582Z,27.62
2022-08-04T22:46:07.212Z,27.53
2022-08-04T22:48:38.394Z,27.45
2022-08-04T22:51:08.595Z,27.31
2022-08-04T22:53:37.709Z,27.19
2022-08-04T22:56:11.153Z,26.98
2022-08-04T22:58:51.200Z,26.96
2022-08-04T23:01:20.661Z,26.96
2022-08-04T23:03:55.798Z,26.84
2022-08-04T23:06:28.586Z,26.78
2022-08-04T23:08:59.354Z,26.65
2022-08-04T23:11:34.804Z,26.58
2022-08-04T23:14:07.159Z,26.56
2022-08-04T23:16:40.387Z,26.44
2022-08-04T23:19:15.079Z,26.42
2022-08-04T23:21:47.731Z,26.50
2022-08-04T23:24:30.447Z,26.47
2022-08-04T23:27:19.369Z,26.36
2022-08-04T23:29:55.667Z,26.18
2022-08-04T23:32:24.759Z,26.00
2022-08-04T23:34:54.223Z,25.94
2022-08-04T23:37:23.620Z,25.84
2022-08-04T23:40:18.055Z,25.85
2022-08-04T23:42:45.071Z,25.72
2022-08-04T23:45:15.085Z,25.67
2022-08-04T23:48:15.590Z,25.48
2022-08-04T23:50:47.966Z,25.23
2022-08-04T23:53:18.409Z,25.20
2022-08-04T23:55:50.969Z,25.23
2022-08-04T23:58:27.600Z,25.19
